createdAt,value
2017-07-26T00:00:00.028Z,55.30
2017-07-26T00:00:04.094Z,55.50
2017-07-26T00:00:08.099Z,55.40
2017-07-26T00:00:12.136Z,55.10
2017-07-26T00:00:16.128Z,54.95
2017-07-26T00:00:20.133Z,54.85
2017-07-26T00:00:24.959Z,55.35
2017-07-26T00:00:28.929Z,55.27
2017-07-26T00:00:32.948Z,55.25
2017-07-26T00:00:37.734Z,55.25
2017-07-26T00:00:41.742Z,55.47
2017-07-26T00:00:46.505Z,55.55
2017-07-26T00:00:50.527Z,55.70
2017-07-26T00:00:54.547Z,55.50
2017-07-26T00:00:59.325Z,55.60
2017-07-26T00:01:03.337Z,55.73
2017-07-26T00:01:07.366Z,55.70
2017-07-26T00:01:11.390Z,55.85
2017-07-26T00:01:15.411Z,55.95
2017-07-26T00:01:19.418Z,56.00
2017-07-26T00:01:23.441Z,55.65
2017-07-26T00:01:28.236Z,55.60
2017-07-26T00:01:33.007Z,55.77
2017-07-26T00:01:37.031Z,55.55
2017-07-26T00:01:41.038Z,55.60
2017-07-26T00:01:45.804Z,55.50
2017-07-26T00:01:49.817Z,55.35
2017-07-26T00:01:53.844Z,55.05
2017-07-26T00:01:58.678Z,54.90
2017-07-26T00:02:02.686Z,54.90
2017-07-26T00:02:06.691Z,54.80
2017-07-26T00:02:10.720Z,55.05
2017-07-26T00:02:14.724Z,55.45
2017-07-26T00:02:18.746Z,55.75
2017-07-26T00:02:22.773Z,55.55
2017-07-26T00:02:26.805Z,55.15
2017-07-26T00:02:31.622Z,55.10
2017-07-26T00:02:35.629Z,55.20
2017-07-26T00:02:40.408Z,55.10
2017-07-26T00:02:44.435Z,55.17
2017-07-26T00:02:49.197Z,55.10
2017-07-26T00:02:53.217Z,54.87
2017-07-26T00:02:57.250Z,54.75
2017-07-26T00:03:01.268Z,54.50
2017-07-26T00:03:05.263Z,54.60
2017-07-26T00:03:09.274Z,54.20
2017-07-26T00:03:13.307Z,53.80
2017-07-26T00:03:18.080Z,53.45
2017-07-26T00:03:22.104Z,53.73
2017-07-26T00:03:26.105Z,54.25
2017-07-26T00:03:30.126Z,54.05
2017-07-26T00:03:34.172Z,53.80
2017-07-26T00:03:38.170Z,54.15
2017-07-26T00:03:42.179Z,54.10
2017-07-26T00:03:46.980Z,54.20
2017-07-26T00:03:50.995Z,54.20
2017-07-26T00:03:55.007Z,53.90
2017-07-26T00:03:59.012Z,53.75
2017-07-26T00:04:03.023Z,53.80
2017-07-26T00:04:07.035Z,53.85
2017-07-26T00:04:11.035Z,54.25
2017-07-26T00:04:15.052Z,54.50
2017-07-26T00:04:19.079Z,54.40
2017-07-26T00:04:23.080Z,54.40
2017-07-26T00:04:27.127Z,54.25
2017-07-26T00:04:31.143Z,54.40
2017-07-26T00:04:35.913Z,54.50
2017-07-26T00:04:39.919Z,54.40
2017-07-26T00:04:43.920Z,54.35
2017-07-26T00:04:47.935Z,54.35
2017-07-26T00:04:52.705Z,54.75
2017-07-26T00:04:56.718Z,55.20
2017-07-26T00:05:00.739Z,55.25
2017-07-26T00:05:04.729Z,55.10
2017-07-26T00:05:09.513Z,54.95
2017-07-26T00:05:13.513Z,54.67
2017-07-26T00:05:17.522Z,54.60
2017-07-26T00:05:21.539Z,54.25
2017-07-26T00:05:26.312Z,54.55
2017-07-26T00:05:30.335Z,54.60
2017-07-26T00:05:35.114Z,54.70
2017-07-26T00:05:39.145Z,54.33
2017-07-26T00:05:43.128Z,54.10
2017-07-26T00:05:47.906Z,54.20
2017-07-26T00:05:51.905Z,53.75
2017-07-26T00:05:55.918Z,53.35
2017-07-26T00:05:59.911Z,53.25
2017-07-26T00:06:03.921Z,52.95
2017-07-26T00:06:08.685Z,52.80
2017-07-26T00:06:12.684Z,52.80
2017-07-26T00:06:16.706Z,52.90
2017-07-26T00:06:20.714Z,52.90
2017-07-26T00:06:25.494Z,52.15
2017-07-26T00:06:29.498Z,51.83
2017-07-26T00:06:33.515Z,51.45
2017-07-26T00:06:37.501Z,51.50
2017-07-26T00:06:41.505Z,51.50
2017-07-26T00:06:46.270Z,51.40
2017-07-26T00:06:50.265Z,51.57
2017-07-26T00:06:54.273Z,51.70
2017-07-26T00:06:58.278Z,51.65
2017-07-26T00:07:02.310Z,52.20
2017-07-26T00:07:07.082Z,52.65
2017-07-26T00:07:11.136Z,52.33
2017-07-26T00:07:15.146Z,52.05
2017-07-26T00:07:19.152Z,52.05
2017-07-26T00:07:23.144Z,52.45
2017-07-26T00:07:27.162Z,52.90
2017-07-26T00:07:31.160Z,53.65
2017-07-26T00:07:35.176Z,53.70
2017-07-26T00:07:39.191Z,53.75
2017-07-26T00:07:43.189Z,53.70
2017-07-26T00:07:47.208Z,53.80
2017-07-26T00:07:51.208Z,53.95
2017-07-26T00:07:55.383Z,54.20
2017-07-26T00:07:59.391Z,54.15
2017-07-26T00:08:03.409Z,53.75
2017-07-26T00:08:07.400Z,53.75
2017-07-26T00:08:11.426Z,53.80
2017-07-26T00:08:16.210Z,54.10
2017-07-26T00:08:20.198Z,54.27
2017-07-26T00:08:24.214Z,54.45
2017-07-26T00:08:28.238Z,53.95
2017-07-26T00:08:32.255Z,53.50
2017-07-26T00:08:36.253Z,53.35
2017-07-26T00:08:40.271Z,53.65
2017-07-26T00:08:44.287Z,53.65
2017-07-26T00:08:48.319Z,53.40
2017-07-26T00:08:53.075Z,53.10
2017-07-26T00:08:57.074Z,53.07
2017-07-26T00:09:01.073Z,53.20
2017-07-26T00:09:05.117Z,53.25
2017-07-26T00:09:09.853Z,53.40
2017-07-26T00:09:13.912Z,52.97
2017-07-26T00:09:17.922Z,52.15
2017-07-26T00:09:21.932Z,51.45
2017-07-26T00:09:25.962Z,51.20
2017-07-26T00:09:29.959Z,51.40
2017-07-26T00:09:33.965Z,51.50
2017-07-26T00:09:38.783Z,51.10
2017-07-26T00:09:43.544Z,50.80
2017-07-26T00:09:47.557Z,50.67
2017-07-26T00:09:51.567Z,50.85
2017-07-26T00:09:55.556Z,51.40
2017-07-26T00:09:59.564Z,51.50
2017-07-26T00:10:04.401Z,51.45
2017-07-26T00:10:08.409Z,51.43
2017-07-26T00:10:12.418Z,52.15
2017-07-26T00:10:16.423Z,52.45
2017-07-26T00:10:20.428Z,53.05
2017-07-26T00:10:24.439Z,53.45
2017-07-26T00:10:28.471Z,53.30
2017-07-26T00:10:32.464Z,53.60
2017-07-26T00:10:36.468Z,54.25
2017-07-26T00:10:40.497Z,54.10
2017-07-26T00:10:44.510Z,54.05
2017-07-26T00:10:48.523Z,53.85
2017-07-26T00:10:53.277Z,53.75
2017-07-26T00:10:57.287Z,53.37
2017-07-26T00:11:01.302Z,53.10
2017-07-26T00:11:05.319Z,53.10
2017-07-26T00:11:10.090Z,52.45
2017-07-26T00:11:14.100Z,51.97
2017-07-26T00:11:18.119Z,51.85
2017-07-26T00:11:22.889Z,51.60
2017-07-26T00:11:26.900Z,51.43
2017-07-26T00:11:30.932Z,51.45
2017-07-26T00:11:35.709Z,50.60
2017-07-26T00:11:39.712Z,50.65
2017-07-26T00:11:43.735Z,50.90
2017-07-26T00:11:47.736Z,50.80
2017-07-26T00:11:51.747Z,50.40
2017-07-26T00:11:55.740Z,50.40
2017-07-26T00:11:59.759Z,50.75
2017-07-26T00:12:03.815Z,51.05
2017-07-26T00:12:07.817Z,51.45
2017-07-26T00:12:11.844Z,52.00
2017-07-26T00:12:15.876Z,51.90
2017-07-26T00:12:20.752Z,51.85
2017-07-26T00:12:24.768Z,51.70
2017-07-26T00:12:28.799Z,52.30
2017-07-26T00:12:32.814Z,52.00
2017-07-26T00:12:36.824Z,52.00
2017-07-26T00:12:40.865Z,51.65
2017-07-26T00:12:45.655Z,52.20
2017-07-26T00:12:49.687Z,52.47
2017-07-26T00:12:53.718Z,52.75
2017-07-26T00:12:57.721Z,52.40
2017-07-26T00:13:01.737Z,51.95
2017-07-26T00:13:05.751Z,51.45
2017-07-26T00:13:10.533Z,50.80
2017-07-26T00:13:14.557Z,50.70
2017-07-26T00:13:19.324Z,50.70
2017-07-26T00:13:23.354Z,50.75
2017-07-26T00:13:27.375Z,50.43
2017-07-26T00:13:31.394Z,50.35
2017-07-26T00:13:35.394Z,50.60
2017-07-26T00:13:39.423Z,50.85
2017-07-26T00:13:43.433Z,50.95
2017-07-26T00:13:48.219Z,50.80
2017-07-26T00:13:52.247Z,50.35
2017-07-26T00:13:57.026Z,50.40
2017-07-26T00:14:01.050Z,50.60
2017-07-26T00:14:05.930Z,50.75
2017-07-26T00:14:09.936Z,51.40
2017-07-26T00:14:13.961Z,51.30
2017-07-26T00:14:18.734Z,51.45
2017-07-26T00:14:22.749Z,51.80
2017-07-26T00:14:26.771Z,51.70
2017-07-26T00:14:31.552Z,51.70
2017-07-26T00:14:35.552Z,51.67
2017-07-26T00:14:39.564Z,51.35
2017-07-26T00:14:44.325Z,51.10
2017-07-26T00:14:48.337Z,50.93
2017-07-26T00:14:52.349Z,50.85
2017-07-26T00:14:56.368Z,50.70
2017-07-26T00:15:01.154Z,50.40
2017-07-26T00:15:05.172Z,50.33
2017-07-26T00:15:09.188Z,49.50
2017-07-26T00:15:13.232Z,49.75
2017-07-26T00:15:17.232Z,49.55
2017-07-26T00:15:21.244Z,49.20
2017-07-26T00:15:26.028Z,49.30
2017-07-26T00:15:30.041Z,49.37
2017-07-26T00:15:34.839Z,49.20
2017-07-26T00:15:38.858Z,49.10
2017-07-26T00:15:43.644Z,49.33
2017-07-26T00:15:49.187Z,49.40
2017-07-26T00:15:53.184Z,49.75
2017-07-26T00:15:57.970Z,49.90
2017-07-26T00:16:01.986Z,50.60
2017-07-26T00:16:06.006Z,50.75
2017-07-26T00:16:10.803Z,51.25
2017-07-26T00:16:14.808Z,51.37
2017-07-26T00:16:19.592Z,51.70
2017-07-26T00:16:23.598Z,51.80
2017-07-26T00:16:27.597Z,52.05
2017-07-26T00:16:32.383Z,52.05
2017-07-26T00:16:36.386Z,52.60
2017-07-26T00:16:40.403Z,53.10
2017-07-26T00:16:45.170Z,53.05
2017-07-26T00:16:49.198Z,53.10
2017-07-26T00:16:53.211Z,53.20
2017-07-26T00:16:57.229Z,53.30
2017-07-26T00:17:01.239Z,52.95
2017-07-26T00:17:05.250Z,53.05
2017-07-26T00:17:09.260Z,53.05
2017-07-26T00:17:13.273Z,52.85
2017-07-26T00:17:18.067Z,52.85
2017-07-26T00:17:22.079Z,53.10
2017-07-26T00:17:26.095Z,52.85
2017-07-26T00:17:30.867Z,52.65
2017-07-26T00:17:34.923Z,52.33
2017-07-26T00:17:38.920Z,51.75
2017-07-26T00:17:42.932Z,51.50
2017-07-26T00:17:46.929Z,51.50
2017-07-26T00:17:50.936Z,51.35
2017-07-26T00:17:54.936Z,51.20
2017-07-26T00:17:58.951Z,50.90
2017-07-26T00:18:03.733Z,50.65
2017-07-26T00:18:07.730Z,50.33
2017-07-26T00:18:11.732Z,50.50
2017-07-26T00:18:15.748Z,50.50
2017-07-26T00:18:20.551Z,50.35
2017-07-26T00:18:24.570Z,49.93
2017-07-26T00:18:28.582Z,50.25
2017-07-26T00:18:32.600Z,50.30
2017-07-26T00:18:36.589Z,50.20
2017-07-26T00:18:40.606Z,50.35
2017-07-26T00:18:44.610Z,50.50
2017-07-26T00:18:48.608Z,50.40
2017-07-26T00:18:52.613Z,50.15
2017-07-26T00:18:57.385Z,50.10
2017-07-26T00:19:01.401Z,50.33
2017-07-26T00:19:05.404Z,50.70
2017-07-26T00:19:10.196Z,50.85
2017-07-26T00:19:14.229Z,50.80
2017-07-26T00:19:18.238Z,50.85
2017-07-26T00:19:22.252Z,51.25
2017-07-26T00:19:26.282Z,51.30
2017-07-26T00:19:30.285Z,51.30
2017-07-26T00:19:34.317Z,51.10
2017-07-26T00:19:38.320Z,51.20
2017-07-26T00:19:42.353Z,51.20
2017-07-26T00:19:46.356Z,51.35
2017-07-26T00:19:50.373Z,51.50
2017-07-26T00:19:55.159Z,51.55
2017-07-26T00:19:59.165Z,51.53
2017-07-26T00:20:03.164Z,51.85
2017-07-26T00:20:07.176Z,51.70
2017-07-26T00:20:11.959Z,51.70
2017-07-26T00:20:15.989Z,51.43
2017-07-26T00:20:20.759Z,51.30
2017-07-26T00:20:24.791Z,51.20
2017-07-26T00:20:28.815Z,51.23
2017-07-26T00:20:32.831Z,51.65
2017-07-26T00:20:36.855Z,51.65
2017-07-26T00:20:40.877Z,51.60
2017-07-26T00:20:44.880Z,51.60
2017-07-26T00:20:48.909Z,51.45
2017-07-26T00:20:52.929Z,51.30
2017-07-26T00:20:56.947Z,51.60
2017-07-26T00:21:01.723Z,51.00
2017-07-26T00:21:05.755Z,50.70
2017-07-26T00:21:09.761Z,50.60
2017-07-26T00:21:13.798Z,50.95
2017-07-26T00:21:17.802Z,51.00
2017-07-26T00:21:21.808Z,50.75
2017-07-26T00:21:25.831Z,50.80
2017-07-26T00:21:30.610Z,50.80
2017-07-26T00:21:34.642Z,50.70
2017-07-26T00:21:38.661Z,50.65
2017-07-26T00:21:42.960Z,50.40
2017-07-26T00:21:47.932Z,50.50
2017-07-26T00:21:51.935Z,50.85
2017-07-26T00:21:56.719Z,51.05
2017-07-26T00:22:00.720Z,51.30
2017-07-26T00:22:04.727Z,51.40
2017-07-26T00:22:08.740Z,51.60
2017-07-26T00:22:12.775Z,50.90
2017-07-26T00:22:16.794Z,50.75
2017-07-26T00:22:20.794Z,50.35
2017-07-26T00:22:24.785Z,50.30
2017-07-26T00:22:28.787Z,50.00
2017-07-26T00:22:32.802Z,49.85
2017-07-26T00:22:37.582Z,49.70
2017-07-26T00:22:41.599Z,49.63
2017-07-26T00:22:45.611Z,49.60
2017-07-26T00:22:49.638Z,49.40
2017-07-26T00:22:53.629Z,49.75
2017-07-26T00:22:57.622Z,49.40
2017-07-26T00:23:01.634Z,49.30
2017-07-26T00:23:05.633Z,48.90
2017-07-26T00:23:09.640Z,48.75
2017-07-26T00:23:13.650Z,48.90
2017-07-26T00:23:18.438Z,48.95
2017-07-26T00:23:22.473Z,48.87
2017-07-26T00:23:26.495Z,48.60
2017-07-26T00:23:30.507Z,48.70
2017-07-26T00:23:34.554Z,49.05
2017-07-26T00:23:39.339Z,49.00
2017-07-26T00:23:43.387Z,49.00
2017-07-26T00:23:47.390Z,49.15
2017-07-26T00:23:51.390Z,49.20
2017-07-26T00:23:55.432Z,48.55
2017-07-26T00:23:59.424Z,48.85
2017-07-26T00:24:04.215Z,48.95
2017-07-26T00:24:08.235Z,49.30
2017-07-26T00:24:13.028Z,49.20
2017-07-26T00:24:17.054Z,49.30
2017-07-26T00:24:21.818Z,49.70
2017-07-26T00:24:25.833Z,50.00
2017-07-26T00:24:29.841Z,50.50
2017-07-26T00:24:34.632Z,50.27
2017-07-26T00:24:38.630Z,50.80
2017-07-26T00:24:42.629Z,51.10
2017-07-26T00:24:46.628Z,51.20
2017-07-26T00:24:50.644Z,51.20
2017-07-26T00:24:54.648Z,51.55
2017-07-26T00:24:58.667Z,51.40
2017-07-26T00:25:02.735Z,51.05
2017-07-26T00:25:07.534Z,50.83
2017-07-26T00:25:12.293Z,50.85
2017-07-26T00:25:16.304Z,51.00
2017-07-26T00:25:20.315Z,51.00
2017-07-26T00:25:24.318Z,50.90
2017-07-26T00:25:28.343Z,50.50
2017-07-26T00:25:32.367Z,50.50
2017-07-26T00:25:36.373Z,50.40
2017-07-26T00:25:40.393Z,50.15
2017-07-26T00:25:44.393Z,50.00
2017-07-26T00:25:48.431Z,49.70
2017-07-26T00:25:52.439Z,49.55
2017-07-26T00:25:56.444Z,49.30
2017-07-26T00:26:00.462Z,49.80
2017-07-26T00:26:04.457Z,50.10
2017-07-26T00:26:08.466Z,50.20
2017-07-26T00:26:13.264Z,50.23
2017-07-26T00:26:17.266Z,50.50
2017-07-26T00:26:21.283Z,50.60
2017-07-26T00:26:25.307Z,50.50
2017-07-26T00:26:29.315Z,50.40
2017-07-26T00:26:33.335Z,50.20
2017-07-26T00:26:37.362Z,50.10
2017-07-26T00:26:41.387Z,50.00
2017-07-26T00:26:45.398Z,49.60
2017-07-26T00:26:49.403Z,49.80
2017-07-26T00:26:53.418Z,49.75
2017-07-26T00:26:57.434Z,49.60
2017-07-26T00:27:02.234Z,49.05
2017-07-26T00:27:07.020Z,49.00
2017-07-26T00:27:11.018Z,49.00
2017-07-26T00:27:15.039Z,48.40
2017-07-26T00:27:19.055Z,48.25
2017-07-26T00:27:23.062Z,47.90
2017-07-26T00:27:27.077Z,48.00
2017-07-26T00:27:31.082Z,48.20
2017-07-26T00:27:35.130Z,48.45
2017-07-26T00:27:39.132Z,48.55
2017-07-26T00:27:43.153Z,48.57
2017-07-26T00:27:47.157Z,48.90
2017-07-26T00:27:51.164Z,48.80
2017-07-26T00:27:55.194Z,49.05
2017-07-26T00:27:59.967Z,49.50
2017-07-26T00:28:03.979Z,49.50
2017-07-26T00:28:07.977Z,49.35
2017-07-26T00:28:12.757Z,49.25
2017-07-26T00:28:16.761Z,49.33
2017-07-26T00:28:20.774Z,49.45
2017-07-26T00:28:24.793Z,49.70
2017-07-26T00:28:28.780Z,49.50
2017-07-26T00:28:32.780Z,49.60
2017-07-26T00:28:36.781Z,49.45
2017-07-26T00:28:40.790Z,49.55
2017-07-26T00:28:44.819Z,49.50
2017-07-26T00:28:48.836Z,49.80
2017-07-26T00:28:52.842Z,49.80
2017-07-26T00:28:57.614Z,49.85
2017-07-26T00:29:01.664Z,50.30
2017-07-26T00:29:05.660Z,50.35
2017-07-26T00:29:09.661Z,50.40
2017-07-26T00:29:13.685Z,50.30
2017-07-26T00:29:17.686Z,50.10
2017-07-26T00:29:21.688Z,50.20
2017-07-26T00:29:25.730Z,50.15
2017-07-26T00:29:29.754Z,50.07
2017-07-26T00:29:33.754Z,49.75
2017-07-26T00:29:37.748Z,49.90
2017-07-26T00:29:41.759Z,49.75
2017-07-26T00:29:45.776Z,49.60
2017-07-26T00:29:49.793Z,49.65
2017-07-26T00:29:53.809Z,50.15
2017-07-26T00:29:57.834Z,50.10
2017-07-26T00:30:01.904Z,50.10
2017-07-26T00:30:05.900Z,50.15
2017-07-26T00:30:09.964Z,50.55
2017-07-26T00:30:13.977Z,50.95
2017-07-26T00:30:17.982Z,51.35
2017-07-26T00:30:21.995Z,52.00
2017-07-26T00:30:26.006Z,52.10
2017-07-26T00:30:31.642Z,52.45
2017-07-26T00:30:35.664Z,52.38
2017-07-26T00:30:40.436Z,52.45
2017-07-26T00:30:44.436Z,52.95
2017-07-26T00:30:48.447Z,53.27
2017-07-26T00:30:52.453Z,52.85
2017-07-26T00:30:57.219Z,52.60
2017-07-26T00:31:01.220Z,52.30
2017-07-26T00:31:05.232Z,52.30
2017-07-26T00:31:09.244Z,52.50
2017-07-26T00:31:14.009Z,52.60
2017-07-26T00:31:18.010Z,52.83
2017-07-26T00:31:22.023Z,52.45
2017-07-26T00:31:26.041Z,52.50
2017-07-26T00:31:30.811Z,52.40
2017-07-26T00:31:34.820Z,52.53
2017-07-26T00:31:39.617Z,52.25
2017-07-26T00:31:43.617Z,51.73
2017-07-26T00:31:47.632Z,51.05
2017-07-26T00:31:51.643Z,50.65
2017-07-26T00:31:56.438Z,50.40
2017-07-26T00:32:00.449Z,50.27
2017-07-26T00:32:04.450Z,50.05
2017-07-26T00:32:08.469Z,49.55
2017-07-26T00:32:12.490Z,49.35
2017-07-26T00:32:16.511Z,48.80
2017-07-26T00:32:20.532Z,48.50
2017-07-26T00:32:25.338Z,48.30
2017-07-26T00:32:30.100Z,48.03
2017-07-26T00:32:34.118Z,48.40
2017-07-26T00:32:38.132Z,48.85
2017-07-26T00:32:42.901Z,49.30
2017-07-26T00:32:46.901Z,49.70
2017-07-26T00:32:50.915Z,49.75
2017-07-26T00:32:54.926Z,50.00
2017-07-26T00:32:58.921Z,50.20
2017-07-26T00:33:03.693Z,50.20
2017-07-26T00:33:07.701Z,50.47
2017-07-26T00:33:11.697Z,50.50
2017-07-26T00:33:15.698Z,50.55
2017-07-26T00:33:19.705Z,50.75
2017-07-26T00:33:23.705Z,50.70
2017-07-26T00:33:28.473Z,50.90
2017-07-26T00:33:32.479Z,50.57
2017-07-26T00:33:36.476Z,50.05
2017-07-26T00:33:40.495Z,50.05
2017-07-26T00:33:44.503Z,49.80
2017-07-26T00:33:49.278Z,50.20
2017-07-26T00:33:53.278Z,50.60
2017-07-26T00:33:57.280Z,50.90
2017-07-26T00:34:01.302Z,51.05
2017-07-26T00:34:06.066Z,51.50
2017-07-26T00:34:10.084Z,51.57
2017-07-26T00:34:14.099Z,52.00
2017-07-26T00:34:18.112Z,51.75
2017-07-26T00:34:22.147Z,51.35
2017-07-26T00:34:26.152Z,51.40
2017-07-26T00:34:30.178Z,51.35
2017-07-26T00:34:34.208Z,51.45
2017-07-26T00:34:38.221Z,51.55
2017-07-26T00:34:42.217Z,51.70
2017-07-26T00:34:46.235Z,51.70
2017-07-26T00:34:50.249Z,51.25
2017-07-26T00:34:54.271Z,51.00
2017-07-26T00:34:58.283Z,50.80
2017-07-26T00:35:02.315Z,50.80
2017-07-26T00:35:06.316Z,50.60
2017-07-26T00:35:10.323Z,50.80
2017-07-26T00:35:15.089Z,50.75
2017-07-26T00:35:19.106Z,50.90
2017-07-26T00:35:23.150Z,51.30
2017-07-26T00:35:27.140Z,51.35
2017-07-26T00:35:31.148Z,51.70
2017-07-26T00:35:35.176Z,51.85
2017-07-26T00:35:39.190Z,51.85
2017-07-26T00:35:43.209Z,51.75
2017-07-26T00:35:47.987Z,52.05
2017-07-26T00:35:51.986Z,52.23
2017-07-26T00:35:56.002Z,52.45
2017-07-26T00:36:00.775Z,52.50
2017-07-26T00:36:04.781Z,52.63
2017-07-26T00:36:08.807Z,52.20
2017-07-26T00:36:13.581Z,52.20
2017-07-26T00:36:17.573Z,52.40
2017-07-26T00:36:21.582Z,52.20
2017-07-26T00:36:25.597Z,52.30
2017-07-26T00:36:30.383Z,52.40
2017-07-26T00:36:34.392Z,52.17
2017-07-26T00:36:39.175Z,52.00
2017-07-26T00:36:43.165Z,51.73
2017-07-26T00:36:47.187Z,51.70
2017-07-26T00:36:51.208Z,51.70
2017-07-26T00:36:55.987Z,51.70
2017-07-26T00:36:59.985Z,51.70
2017-07-26T00:37:04.008Z,51.20
2017-07-26T00:37:08.772Z,51.20
2017-07-26T00:37:12.776Z,51.10
2017-07-26T00:37:16.826Z,51.40
2017-07-26T00:37:20.838Z,51.55
2017-07-26T00:37:24.853Z,51.70
2017-07-26T00:37:28.854Z,51.65
2017-07-26T00:37:32.886Z,51.70
2017-07-26T00:37:37.650Z,51.75
2017-07-26T00:37:41.681Z,51.90
2017-07-26T00:37:46.457Z,52.00
2017-07-26T00:37:50.471Z,51.70
2017-07-26T00:37:54.475Z,51.40
2017-07-26T00:37:58.471Z,51.10
2017-07-26T00:38:03.233Z,51.35
2017-07-26T00:38:07.247Z,51.63
2017-07-26T00:38:11.259Z,52.00
2017-07-26T00:38:16.774Z,52.25
2017-07-26T00:38:20.768Z,52.45
2017-07-26T00:38:24.783Z,52.30
2017-07-26T00:38:28.808Z,52.60
2017-07-26T00:38:32.838Z,53.30
2017-07-26T00:38:36.850Z,53.30
2017-07-26T00:38:40.875Z,53.20
2017-07-26T00:38:45.656Z,53.35
2017-07-26T00:38:49.677Z,53.53
2017-07-26T00:38:53.673Z,54.05
2017-07-26T00:38:58.445Z,54.40
2017-07-26T00:39:02.448Z,54.25
2017-07-26T00:39:06.467Z,54.10
2017-07-26T00:39:10.477Z,53.95
2017-07-26T00:39:14.496Z,53.50
2017-07-26T00:39:18.516Z,53.00
2017-07-26T00:39:22.509Z,53.07
2017-07-26T00:39:26.512Z,52.65
2017-07-26T00:39:30.516Z,51.80
2017-07-26T00:39:34.551Z,51.30
2017-07-26T00:39:39.315Z,51.30
2017-07-26T00:39:43.326Z,51.55
2017-07-26T00:39:47.336Z,51.65
2017-07-26T00:39:52.116Z,51.55
2017-07-26T00:39:56.108Z,51.50
2017-07-26T00:40:00.138Z,51.70
2017-07-26T00:40:04.112Z,51.90
2017-07-26T00:40:08.109Z,52.00
2017-07-26T00:40:12.144Z,52.05
2017-07-26T00:40:16.149Z,52.10
2017-07-26T00:40:20.164Z,52.00
2017-07-26T00:40:24.160Z,52.05
2017-07-26T00:40:28.169Z,52.75
2017-07-26T00:40:32.189Z,53.00
2017-07-26T00:40:36.184Z,53.00
2017-07-26T00:40:40.967Z,53.10
2017-07-26T00:40:45.015Z,52.80
2017-07-26T00:40:49.011Z,52.60
2017-07-26T00:40:53.084Z,52.35
2017-07-26T00:40:57.846Z,51.95
2017-07-26T00:41:01.860Z,51.83
2017-07-26T00:41:05.876Z,51.10
2017-07-26T00:41:09.894Z,50.95
2017-07-26T00:41:14.657Z,50.90
2017-07-26T00:41:18.656Z,51.20
2017-07-26T00:41:22.656Z,51.65
2017-07-26T00:41:26.662Z,51.55
2017-07-26T00:41:30.660Z,51.15
2017-07-26T00:41:34.676Z,51.15
2017-07-26T00:41:39.464Z,51.45
2017-07-26T00:41:43.464Z,51.70
2017-07-26T00:41:48.240Z,51.45
2017-07-26T00:41:52.264Z,51.77
2017-07-26T00:41:56.272Z,52.15
2017-07-26T00:42:01.041Z,52.45
2017-07-26T00:42:05.073Z,52.67
2017-07-26T00:42:09.083Z,52.55
2017-07-26T00:42:13.877Z,52.40
2017-07-26T00:42:17.906Z,52.13
2017-07-26T00:42:21.968Z,51.75
2017-07-26T00:42:25.969Z,51.50
2017-07-26T00:42:30.745Z,51.60
2017-07-26T00:42:34.759Z,51.50
2017-07-26T00:42:38.793Z,50.83
2017-07-26T00:42:42.811Z,50.60
2017-07-26T00:42:46.830Z,50.60
2017-07-26T00:42:50.841Z,50.30
2017-07-26T00:42:54.853Z,50.15
2017-07-26T00:42:59.631Z,49.85
2017-07-26T00:43:03.641Z,49.45
2017-07-26T00:43:07.658Z,49.73
2017-07-26T00:43:12.445Z,50.40
2017-07-26T00:43:16.456Z,50.60
2017-07-26T00:43:20.611Z,50.70
2017-07-26T00:43:24.609Z,50.70
2017-07-26T00:43:28.624Z,50.80
2017-07-26T00:43:32.616Z,50.60
2017-07-26T00:43:36.628Z,50.90
2017-07-26T00:43:41.411Z,51.05
2017-07-26T00:43:45.418Z,51.00
2017-07-26T00:43:49.412Z,51.15
2017-07-26T00:43:53.442Z,51.05
2017-07-26T00:43:58.225Z,50.75
2017-07-26T00:44:02.223Z,51.30
2017-07-26T00:44:06.225Z,51.30
2017-07-26T00:44:11.046Z,51.10
2017-07-26T00:44:15.823Z,50.63
2017-07-26T00:44:19.821Z,50.53
2017-07-26T00:44:23.929Z,50.50
2017-07-26T00:44:27.919Z,50.55
2017-07-26T00:44:31.942Z,50.85
2017-07-26T00:44:36.717Z,50.95
2017-07-26T00:44:40.734Z,50.80
2017-07-26T00:44:44.766Z,51.30
2017-07-26T00:44:48.772Z,51.30
2017-07-26T00:44:52.796Z,50.90
2017-07-26T00:44:56.823Z,51.10
2017-07-26T00:45:00.850Z,50.90
2017-07-26T00:45:04.845Z,50.90
2017-07-26T00:45:08.884Z,51.20
2017-07-26T00:45:12.907Z,51.05
2017-07-26T00:45:17.687Z,50.65
2017-07-26T00:45:21.709Z,50.50
2017-07-26T00:45:25.728Z,50.30
2017-07-26T00:45:29.720Z,50.30
2017-07-26T00:45:33.725Z,50.25
2017-07-26T00:45:37.756Z,50.30
2017-07-26T00:45:41.790Z,50.10
2017-07-26T00:45:47.018Z,49.65
2017-07-26T00:45:51.852Z,49.93
2017-07-26T00:45:55.867Z,50.00
2017-07-26T00:45:59.962Z,50.00
2017-07-26T00:46:03.974Z,49.95
2017-07-26T00:46:07.991Z,49.27
2017-07-26T00:46:11.999Z,49.25
2017-07-26T00:46:16.779Z,49.25
2017-07-26T00:46:20.807Z,49.25
2017-07-26T00:46:24.804Z,49.60
2017-07-26T00:46:28.823Z,49.45
2017-07-26T00:46:32.834Z,49.10
2017-07-26T00:46:36.854Z,48.65
2017-07-26T00:46:40.870Z,48.53
2017-07-26T00:46:44.870Z,47.85
2017-07-26T00:46:48.865Z,47.55
2017-07-26T00:46:52.887Z,47.30
2017-07-26T00:46:56.912Z,46.90
2017-07-26T00:47:00.925Z,46.95
2017-07-26T00:47:04.965Z,47.05
2017-07-26T00:47:08.962Z,46.85
2017-07-26T00:47:12.970Z,46.60
2017-07-26T00:47:17.003Z,46.85
2017-07-26T00:47:21.019Z,46.85
2017-07-26T00:47:25.030Z,46.70
2017-07-26T00:47:29.056Z,46.70
2017-07-26T00:47:33.030Z,46.85
2017-07-26T00:47:37.042Z,46.85
2017-07-26T00:47:41.038Z,46.75
2017-07-26T00:47:45.042Z,47.25
2017-07-26T00:47:49.036Z,47.55
2017-07-26T00:47:53.059Z,47.95
2017-07-26T00:47:57.076Z,48.30
2017-07-26T00:48:01.105Z,48.05
2017-07-26T00:48:05.107Z,47.90
2017-07-26T00:48:09.134Z,48.10
2017-07-26T00:48:13.138Z,48.25
2017-07-26T00:48:17.146Z,47.80
2017-07-26T00:48:21.159Z,47.35
2017-07-26T00:48:25.171Z,47.20
2017-07-26T00:48:29.189Z,47.00
2017-07-26T00:48:33.205Z,46.95
2017-07-26T00:48:37.987Z,47.00
2017-07-26T00:48:41.982Z,46.73
2017-07-26T00:48:46.003Z,46.50
2017-07-26T00:48:50.007Z,46.25
2017-07-26T00:48:54.773Z,46.00
2017-07-26T00:48:58.777Z,45.80
2017-07-26T00:49:02.803Z,45.95
2017-07-26T00:49:06.800Z,46.10
2017-07-26T00:49:11.589Z,45.80
2017-07-26T00:49:15.590Z,46.07
2017-07-26T00:49:19.608Z,46.40
2017-07-26T00:49:24.395Z,46.50
2017-07-26T00:49:28.419Z,46.63
2017-07-26T00:49:33.198Z,46.75
2017-07-26T00:49:37.218Z,46.83
2017-07-26T00:49:41.234Z,47.10
2017-07-26T00:49:45.259Z,47.20
2017-07-26T00:49:49.281Z,47.35
2017-07-26T00:49:53.288Z,47.50
2017-07-26T00:49:57.310Z,47.50
2017-07-26T00:50:01.344Z,47.50
2017-07-26T00:50:05.367Z,47.05
2017-07-26T00:50:09.378Z,47.25
2017-07-26T00:50:13.399Z,47.15
2017-07-26T00:50:17.398Z,46.70
2017-07-26T00:50:21.409Z,46.50
2017-07-26T00:50:25.423Z,46.40
2017-07-26T00:50:29.428Z,46.20
2017-07-26T00:50:33.444Z,46.10
2017-07-26T00:50:38.232Z,45.90
2017-07-26T00:50:42.229Z,45.83
2017-07-26T00:50:46.246Z,45.65
2017-07-26T00:50:51.026Z,45.30
2017-07-26T00:50:55.043Z,44.87
2017-07-26T00:50:59.072Z,44.95
2017-07-26T00:51:03.135Z,45.00
2017-07-26T00:51:07.147Z,45.05
2017-07-26T00:51:11.942Z,44.75
2017-07-26T00:51:15.964Z,44.77
2017-07-26T00:51:19.972Z,44.60
2017-07-26T00:51:24.005Z,44.55
2017-07-26T00:51:28.008Z,44.50
2017-07-26T00:51:32.039Z,44.45
2017-07-26T00:51:36.055Z,44.40
2017-07-26T00:51:40.088Z,44.40
2017-07-26T00:51:44.143Z,44.55
2017-07-26T00:51:48.137Z,44.75
2017-07-26T00:51:52.175Z,44.70
2017-07-26T00:51:56.178Z,44.65
2017-07-26T00:52:00.266Z,44.10
2017-07-26T00:52:04.274Z,43.95
2017-07-26T00:52:08.289Z,43.85
2017-07-26T00:52:12.288Z,44.10
2017-07-26T00:52:16.342Z,43.95
2017-07-26T00:52:20.340Z,44.20
2017-07-26T00:52:24.370Z,44.45
2017-07-26T00:52:28.402Z,44.80
2017-07-26T00:52:32.388Z,44.80
2017-07-26T00:52:36.455Z,44.70
2017-07-26T00:52:40.456Z,44.55
2017-07-26T00:52:44.478Z,44.13
2017-07-26T00:52:48.490Z,43.75
2017-07-26T00:52:52.499Z,43.70
2017-07-26T00:52:56.516Z,43.75
2017-07-26T00:53:01.283Z,43.85
2017-07-26T00:53:05.292Z,44.15
2017-07-26T00:53:09.302Z,44.20
2017-07-26T00:53:13.312Z,44.20
2017-07-26T00:53:18.081Z,44.60
2017-07-26T00:53:22.099Z,44.20
2017-07-26T00:53:26.096Z,43.80
2017-07-26T00:53:30.108Z,43.90